Clay Hill, Texas
Current Conditions -  °F | °C
As of 11:15 AM on Friday 24 Oct 2014 (Local Time) from KLXY Reporting Station
Scattered Clouds Scattered Clouds  
Wind Chill: 69°   Ceiling: Unl
Heat Index: 69°   Visibility: 10mi
Dew Point: 57°   Wind: 3mph
Humidity: 65%   Direction: 150°SSE
Pressure: 30.19"   Gusts: NA
Location:  31.6463°N, 96.2786°W
Report Text: KLXY 241615Z AUTO 15003KT 10SM SCT050 SCT065 21/14 A3019 RMK AO2 T02060137
Loading
Personal Weather Stations






























Interactive Weather Map
Tropical Storm Tracking
New forecast layout! Learn more

10-Day Weather Forecast

Advertisements
Track Severe Weather on mobile